Eden, Vermont
Current Conditions -  °F | °C
As of 7:54 AM on Thursday 23 Oct 2014 (Local Time) from KMVL Reporting Station
Overcast Overcast  
Wind Chill:   Ceiling: 2100
Heat Index:   Visibility: 10mi
Dew Point:   Wind: 14mph
Humidity: 73%   Direction: 350°N
Pressure: 29.98"   Gusts: NA
Location:  44.71°N, 72.55°W
Report Text: KMVL 231154Z AUTO 35012KT 10SM OVC021 08/03 A2998 RMK AO2 SLP157 70001 T00780033 10089 20078 58009
Loading
Personal Weather Stations






























Interactive Weather Map
Tropical Storm Tracking
New forecast layout! Learn more

10-Day Weather Forecast

Advertisements
Track Severe Weather on mobile